createdAt,value
2023-03-21T00:01:54.169Z,101591.47
2023-03-21T00:04:25.433Z,101588.03
2023-03-21T00:06:53.162Z,101583.81
2023-03-21T00:09:21.350Z,101569.72
2023-03-21T00:11:49.264Z,101573.34
2023-03-21T00:14:18.752Z,101568.81
2023-03-21T00:16:50.623Z,101567.28
2023-03-21T00:19:20.815Z,101565.63
2023-03-21T00:22:08.694Z,101559.38
2023-03-21T00:24:38.084Z,101566.97
2023-03-21T00:27:33.676Z,101559.22
2023-03-21T00:29:53.516Z,101568.78
2023-03-21T00:32:22.796Z,101560.13
2023-03-21T00:35:43.676Z,101569.78
2023-03-21T00:37:38.404Z,101556.78
2023-03-21T00:40:16.373Z,101549.84
2023-03-21T00:42:47.112Z,101561.94
2023-03-21T00:45:15.546Z,101560.16
2023-03-21T00:47:43.556Z,101559.13
2023-03-21T00:50:11.891Z,101551.19
2023-03-21T00:52:41.327Z,101541.63
2023-03-21T00:55:15.113Z,101548.56
2023-03-21T00:57:45.332Z,101542.63
2023-03-21T01:00:17.908Z,101536.38
2023-03-21T01:03:02.733Z,101535.47
2023-03-21T01:05:58.205Z,101530.47
2023-03-21T01:08:33.163Z,101526.84
2023-03-21T01:11:12.240Z,101532.31
2023-03-21T01:13:47.491Z,101514.97
2023-03-21T01:16:20.973Z,101524.38
2023-03-21T01:18:48.596Z,101511.38
2023-03-21T01:21:16.150Z,101517.41
2023-03-21T01:23:44.752Z,101515.75
2023-03-21T01:26:13.535Z,101514.84
2023-03-21T01:28:43.422Z,101515.75
2023-03-21T01:31:13.836Z,101512.22
2023-03-21T01:33:42.272Z,101510.53
2023-03-21T01:36:15.163Z,101500.97
2023-03-21T01:38:44.296Z,101503.66
2023-03-21T01:41:26.154Z,101500.78
2023-03-21T01:43:54.133Z,101498.44
2023-03-21T01:46:51.512Z,101502.69
2023-03-21T01:49:35.780Z,101495.75
2023-03-21T01:52:18.939Z,101496.63
2023-03-21T01:54:54.475Z,101490.53
2023-03-21T01:57:43.735Z,101479.84
2023-03-21T02:00:16.557Z,101473.16
2023-03-21T02:02:52.604Z,101471.44
2023-03-21T02:05:28.330Z,101470.34
2023-03-21T02:07:55.913Z,101467.19
2023-03-21T02:10:23.525Z,101471.66
2023-03-21T02:12:51.174Z,101460.16
2023-03-21T02:15:18.832Z,101462.69
2023-03-21T02:17:56.700Z,101462.53
2023-03-21T02:20:46.590Z,101452.19
2023-03-21T02:23:46.114Z,101453.75
2023-03-21T02:26:42.488Z,101452.00
2023-03-21T02:29:44.803Z,101438.66
2023-03-21T02:32:37.452Z,101434.50
2023-03-21T02:35:39.139Z,101442.38
2023-03-21T02:38:16.832Z,101431.16
2023-03-21T02:41:18.017Z,101436.34
2023-03-21T02:43:58.308Z,101435.41
2023-03-21T02:47:02.912Z,101432.78
2023-03-21T02:49:53.493Z,101435.31
2023-03-21T02:52:37.913Z,101423.22
2023-03-21T02:55:13.813Z,101429.25
2023-03-21T02:57:44.510Z,101427.53
2023-03-21T03:00:17.854Z,101422.69
2023-03-21T03:02:47.570Z,101427.09
2023-03-21T03:05:21.519Z,101422.63
2023-03-21T03:08:08.046Z,101419.81
2023-03-21T03:10:44.694Z,101419.84
2023-03-21T03:13:22.495Z,101422.53
2023-03-21T03:16:11.453Z,101424.19
2023-03-21T03:18:53.928Z,101422.38
2023-03-21T03:21:42.211Z,101422.66
2023-03-21T03:24:20.182Z,101418.22
2023-03-21T03:27:01.852Z,101420.78
2023-03-21T03:29:32.494Z,101420.72
2023-03-21T03:32:09.732Z,101415.41
2023-03-21T03:34:41.540Z,101419.16
2023-03-21T03:37:14.071Z,101410.31
2023-03-21T03:39:48.776Z,101402.53
2023-03-21T03:42:28.009Z,101407.63
2023-03-21T03:44:56.939Z,101400.00
2023-03-21T03:47:50.714Z,101403.38
2023-03-21T03:50:48.235Z,101404.25
2023-03-21T03:53:24.806Z,101399.16
2023-03-21T03:55:56.296Z,101419.16
2023-03-21T03:58:36.084Z,101408.03
2023-03-21T04:01:08.442Z,101406.19
2023-03-21T04:03:48.874Z,101406.25
2023-03-21T04:06:18.965Z,101403.25
2023-03-21T04:08:46.545Z,101396.56
2023-03-21T04:11:17.460Z,101399.28
2023-03-21T04:13:44.973Z,101389.66
2023-03-21T04:16:12.970Z,101389.72
2023-03-21T04:18:41.839Z,101386.00
2023-03-21T04:21:14.292Z,101391.06
2023-03-21T04:23:42.440Z,101386.00
2023-03-21T04:26:10.369Z,101393.78
2023-03-21T04:28:38.120Z,101392.78
2023-03-21T04:31:22.719Z,101385.03
2023-03-21T04:33:52.325Z,101392.63
2023-03-21T04:36:27.268Z,101381.25
2023-03-21T04:38:57.149Z,101389.25
2023-03-21T04:41:24.693Z,101389.50
2023-03-21T04:43:52.580Z,101385.03
2023-03-21T04:46:20.275Z,101379.84
2023-03-21T04:48:48.891Z,101379.72
2023-03-21T04:51:17.325Z,101379.19
2023-03-21T04:53:46.948Z,101379.16
2023-03-21T04:56:14.460Z,101380.97
2023-03-21T04:58:43.138Z,101380.31
2023-03-21T05:01:10.825Z,101377.88
2023-03-21T05:03:40.303Z,101372.38
2023-03-21T05:06:09.414Z,101365.47
2023-03-21T05:08:37.861Z,101368.84
2023-03-21T05:11:05.788Z,101366.22
2023-03-21T05:13:33.259Z,101363.41
2023-03-21T05:16:00.813Z,101363.50
2023-03-21T05:18:28.378Z,101370.44
2023-03-21T05:20:58.015Z,101365.03
2023-03-21T05:23:25.889Z,101361.56
2023-03-21T05:25:53.372Z,101359.81
2023-03-21T05:28:20.918Z,101358.19
2023-03-21T05:30:48.521Z,101356.34
2023-03-21T05:33:16.199Z,101356.34
2023-03-21T05:35:43.761Z,101347.69
2023-03-21T05:38:11.324Z,101353.78
2023-03-21T05:40:38.831Z,101347.84
2023-03-21T05:43:06.327Z,101347.72
2023-03-21T05:45:33.915Z,101347.72
2023-03-21T05:48:01.448Z,101342.50
2023-03-21T05:50:29.507Z,101349.44
2023-03-21T05:52:57.204Z,101352.94
2023-03-21T05:55:24.774Z,101342.44
2023-03-21T05:57:52.324Z,101345.84
2023-03-21T06:00:22.093Z,101340.66
2023-03-21T06:02:49.809Z,101338.78
2023-03-21T06:05:17.448Z,101348.34
2023-03-21T06:07:45.376Z,101350.16
2023-03-21T06:10:12.955Z,101353.69
2023-03-21T06:12:40.447Z,101349.53
2023-03-21T06:15:08.797Z,101346.72
2023-03-21T06:17:36.345Z,101344.28
2023-03-21T06:20:05.415Z,101345.75
2023-03-21T06:22:34.109Z,101353.66
2023-03-21T06:25:01.677Z,101350.19
2023-03-21T06:27:29.270Z,101350.97
2023-03-21T06:29:57.982Z,101350.84
2023-03-21T06:32:26.098Z,101349.34
2023-03-21T06:34:54.051Z,101354.50
2023-03-21T06:37:21.604Z,101353.03
2023-03-21T06:39:49.059Z,101353.03
2023-03-21T06:42:16.965Z,101357.25
2023-03-21T06:44:44.660Z,101356.28
2023-03-21T06:47:12.218Z,101356.53
2023-03-21T06:49:40.988Z,101351.22
2023-03-21T06:52:08.504Z,101356.41
2023-03-21T06:54:36.184Z,101354.63
2023-03-21T06:57:04.304Z,101358.16
2023-03-21T06:59:31.815Z,101354.47
2023-03-21T07:01:59.834Z,101360.53
2023-03-21T07:04:28.252Z,101355.06
2023-03-21T07:06:56.003Z,101357.53
2023-03-21T07:09:24.677Z,101359.38
2023-03-21T07:11:53.947Z,101356.16
2023-03-21T07:14:22.833Z,101357.03
2023-03-21T07:16:50.854Z,101355.28
2023-03-21T07:19:18.518Z,101363.88
2023-03-21T07:21:46.260Z,101356.16
2023-03-21T07:24:13.836Z,101363.94
2023-03-21T07:26:41.366Z,101353.25
2023-03-21T07:29:08.966Z,101357.72
2023-03-21T07:31:36.650Z,101337.78
2023-03-21T07:34:04.331Z,101352.63
2023-03-21T07:36:31.928Z,101343.81
2023-03-21T07:38:59.418Z,101322.75
2023-03-21T07:41:26.987Z,101326.31
2023-03-21T07:43:54.498Z,101321.09
2023-03-21T07:46:22.113Z,101321.84
2023-03-21T07:48:49.658Z,101321.94
2023-03-21T07:51:17.395Z,101312.22
2023-03-21T07:53:48.455Z,101318.34
2023-03-21T07:56:15.978Z,101317.56
2023-03-21T07:58:43.585Z,101313.81
2023-03-21T08:01:11.184Z,101328.63
2023-03-21T08:03:38.786Z,101328.81
2023-03-21T08:06:06.755Z,101320.59
2023-03-21T08:08:34.478Z,101329.69
2023-03-21T08:11:02.087Z,101319.00
2023-03-21T08:13:29.609Z,101319.13
2023-03-21T08:15:57.205Z,101314.53
2023-03-21T08:18:24.799Z,101321.00
2023-03-21T08:20:58.433Z,101315.50
2023-03-21T08:23:26.498Z,101299.91
2023-03-21T08:25:55.868Z,101298.84
2023-03-21T08:28:24.425Z,101307.44
2023-03-21T08:30:52.221Z,101298.75
2023-03-21T08:33:20.227Z,101306.38
2023-03-21T08:35:48.067Z,101298.91
2023-03-21T08:38:16.057Z,101284.09
2023-03-21T08:40:43.709Z,101288.28
2023-03-21T08:43:12.707Z,101289.25
2023-03-21T08:45:41.968Z,101284.91
2023-03-21T08:48:09.530Z,101287.38
2023-03-21T08:50:37.410Z,101278.69
2023-03-21T08:53:05.618Z,101272.78
2023-03-21T08:55:34.910Z,101269.38
2023-03-21T08:58:02.671Z,101264.81
2023-03-21T09:00:30.705Z,101261.31
2023-03-21T09:02:58.848Z,101263.00
2023-03-21T09:05:28.159Z,101251.47
2023-03-21T09:07:55.696Z,101258.69
2023-03-21T09:10:24.590Z,101260.03
2023-03-21T09:12:54.477Z,101254.22
2023-03-21T09:15:24.992Z,101242.53
2023-03-21T09:17:54.519Z,101245.31
2023-03-21T09:20:30.561Z,101247.56
2023-03-21T09:22:58.769Z,101233.75
2023-03-21T09:25:29.575Z,101242.22
2023-03-21T09:27:58.167Z,101235.25
2023-03-21T09:30:26.541Z,101214.25
2023-03-21T09:32:55.773Z,101232.78
2023-03-21T09:35:24.345Z,101235.28
2023-03-21T09:37:52.342Z,101232.09
2023-03-21T09:40:47.967Z,101236.44
2023-03-21T09:43:24.387Z,101234.22
2023-03-21T09:46:10.188Z,101228.75
2023-03-21T09:49:10.668Z,101231.78
2023-03-21T09:51:43.005Z,101230.81
2023-03-21T09:54:18.093Z,101228.88
2023-03-21T09:56:47.264Z,101227.25
2023-03-21T09:59:27.485Z,101223.75
2023-03-21T10:01:55.391Z,101234.06
2023-03-21T10:04:23.363Z,101231.06
2023-03-21T10:06:59.653Z,101226.44
2023-03-21T10:09:29.510Z,101233.06
2023-03-21T10:12:02.809Z,101227.56
2023-03-21T10:14:42.384Z,101226.66
2023-03-21T10:17:19.080Z,101221.31
2023-03-21T10:19:48.308Z,101222.06
2023-03-21T10:22:16.015Z,101225.66
2023-03-21T10:24:43.592Z,101215.34
2023-03-21T10:27:13.313Z,101216.28
2023-03-21T10:29:45.469Z,101213.38
2023-03-21T10:32:17.156Z,101205.41
2023-03-21T10:37:26.005Z,101205.13
2023-03-21T10:39:56.265Z,101193.78
2023-03-21T10:42:31.478Z,101192.47
2023-03-21T10:44:59.661Z,101215.09
2023-03-21T10:47:35.327Z,101192.69
2023-03-21T10:50:09.165Z,101206.91
2023-03-21T10:52:39.537Z,101194.13
2023-03-21T10:55:18.942Z,101207.09
2023-03-21T10:57:48.485Z,101203.41
2023-03-21T11:00:23.932Z,101218.03
2023-03-21T11:02:54.907Z,101221.81
2023-03-21T11:05:45.624Z,101222.59
2023-03-21T11:08:16.968Z,101216.56
2023-03-21T11:11:02.613Z,101217.69
2023-03-21T11:13:39.667Z,101213.16
2023-03-21T11:16:19.566Z,101211.19
2023-03-21T11:18:52.947Z,101210.44
2023-03-21T11:21:22.213Z,101201.94
2023-03-21T11:23:52.838Z,101190.06
2023-03-21T11:26:30.864Z,101191.28
2023-03-21T11:28:59.189Z,101189.91
2023-03-21T11:31:41.156Z,101176.47
2023-03-21T11:34:10.931Z,101173.47
2023-03-21T11:36:39.974Z,101158.34
2023-03-21T11:39:41.107Z,101176.38
2023-03-21T11:42:33.623Z,101162.19
2023-03-21T11:45:14.879Z,101172.66
2023-03-21T11:47:42.620Z,101185.97
2023-03-21T11:50:17.616Z,101181.63
2023-03-21T11:52:59.564Z,101168.59
2023-03-21T11:55:48.760Z,101183.78
2023-03-21T11:58:45.576Z,101180.97
2023-03-21T12:01:35.454Z,101184.38
2023-03-21T12:04:05.625Z,101175.41
2023-03-21T12:06:37.767Z,101173.03
2023-03-21T12:09:23.529Z,101178.16
2023-03-21T12:12:11.944Z,101173.47
2023-03-21T12:14:55.334Z,101160.50
2023-03-21T12:17:54.954Z,101169.91
2023-03-21T12:20:33.768Z,101157.16
2023-03-21T12:23:20.132Z,101157.53
2023-03-21T12:26:15.549Z,101143.47
2023-03-21T12:28:58.941Z,101137.28
2023-03-21T12:31:38.432Z,101153.84
2023-03-21T12:34:27.744Z,101141.88
2023-03-21T12:37:32.070Z,101135.53
2023-03-21T12:40:25.779Z,101135.41
2023-03-21T12:43:25.456Z,101126.59
2023-03-21T12:46:00.074Z,101121.38
2023-03-21T12:48:47.485Z,101122.19
2023-03-21T12:51:20.259Z,101115.63
2023-03-21T12:53:53.417Z,101121.75
2023-03-21T12:56:38.863Z,101120.00
2023-03-21T12:59:26.235Z,101110.00
2023-03-21T13:01:59.198Z,101107.75
2023-03-21T13:04:41.397Z,101105.47
2023-03-21T13:07:13.700Z,101101.31
2023-03-21T13:09:42.807Z,101106.78
2023-03-21T13:12:19.245Z,101093.81
2023-03-21T13:15:18.372Z,101096.63
2023-03-21T13:18:31.177Z,101093.66
2023-03-21T13:21:03.771Z,101096.44
2023-03-21T13:23:37.802Z,101102.19
2023-03-21T13:26:11.256Z,101080.84
2023-03-21T13:28:41.774Z,101084.88
2023-03-21T13:31:18.668Z,101092.56
2023-03-21T13:33:52.417Z,101086.78
2023-03-21T13:36:26.725Z,101085.50
2023-03-21T13:39:00.616Z,101083.63
2023-03-21T13:41:35.250Z,101072.91
2023-03-21T13:44:02.843Z,101070.72
2023-03-21T13:46:34.177Z,101072.56
2023-03-21T13:49:10.936Z,101074.19
2023-03-21T13:51:46.476Z,101073.25
2023-03-21T13:54:36.758Z,101067.78
2023-03-21T13:57:07.863Z,101064.16
2023-03-21T13:59:45.750Z,101064.47
2023-03-21T14:02:13.192Z,101068.69
2023-03-21T14:04:54.184Z,101067.16
2023-03-21T14:07:34.143Z,101058.22
2023-03-21T14:10:06.537Z,101056.06
2023-03-21T14:12:43.578Z,101051.19
2023-03-21T14:15:31.090Z,101050.25
2023-03-21T14:18:10.852Z,101045.38
2023-03-21T14:20:58.539Z,101040.38
2023-03-21T14:23:26.731Z,101033.09
2023-03-21T14:25:54.487Z,101035.31
2023-03-21T14:28:26.109Z,101043.13
2023-03-21T14:30:57.914Z,101043.59
2023-03-21T14:33:33.826Z,101041.91
2023-03-21T14:36:06.363Z,101041.34
2023-03-21T14:38:38.238Z,101045.84
2023-03-21T14:41:06.464Z,101054.63
2023-03-21T14:43:34.384Z,101054.75
2023-03-21T14:46:02.364Z,101035.25
2023-03-21T14:48:35.716Z,101048.06
2023-03-21T14:51:08.186Z,101032.03
2023-03-21T14:53:41.791Z,101034.53
2023-03-21T14:56:23.418Z,101031.91
2023-03-21T14:58:51.446Z,101042.00
2023-03-21T15:01:29.289Z,101040.38
2023-03-21T15:03:58.708Z,101038.28
2023-03-21T15:06:27.996Z,101029.84
2023-03-21T15:09:05.736Z,101027.63
2023-03-21T15:11:39.335Z,101024.41
2023-03-21T15:14:09.723Z,101023.13
2023-03-21T15:16:38.065Z,101014.00
2023-03-21T15:19:06.126Z,101001.22
2023-03-21T15:21:39.073Z,101007.03
2023-03-21T15:24:28.135Z,101002.25
2023-03-21T15:27:01.642Z,101009.66
2023-03-21T15:29:29.566Z,101012.59
2023-03-21T15:31:57.809Z,101020.25
2023-03-21T15:34:28.966Z,101019.72
2023-03-21T15:37:00.209Z,101019.13
2023-03-21T15:39:29.921Z,101025.06
2023-03-21T15:42:00.898Z,101022.88
2023-03-21T15:44:29.904Z,101023.50
2023-03-21T15:46:58.224Z,101032.94
2023-03-21T15:49:44.019Z,101039.59
2023-03-21T15:52:17.836Z,101037.97
2023-03-21T15:54:56.618Z,101044.81
2023-03-21T15:57:30.064Z,101049.13
2023-03-21T16:00:11.994Z,101052.78
2023-03-21T16:02:41.869Z,101049.06
2023-03-21T16:05:28.372Z,101049.88
2023-03-21T16:08:00.494Z,101057.44
2023-03-21T16:10:28.542Z,101050.50
2023-03-21T16:12:56.107Z,101065.03
2023-03-21T16:15:26.942Z,101056.25
2023-03-21T16:18:08.513Z,101059.19
2023-03-21T16:20:43.893Z,101063.63
2023-03-21T16:23:17.294Z,101046.69
2023-03-21T16:25:45.697Z,101050.78
2023-03-21T16:28:18.823Z,101047.47
2023-03-21T16:30:46.475Z,101021.22
2023-03-21T16:33:14.588Z,101037.13
2023-03-21T16:35:42.158Z,101034.06
2023-03-21T16:38:11.596Z,101035.31
2023-03-21T16:40:41.466Z,101033.41
2023-03-21T16:43:09.263Z,101034.97
2023-03-21T16:45:37.026Z,101033.31
2023-03-21T16:48:05.228Z,101018.13
2023-03-21T16:50:36.113Z,101019.66
2023-03-21T16:53:04.317Z,101015.97
2023-03-21T16:55:34.720Z,101003.47
2023-03-21T16:58:02.677Z,101011.47
2023-03-21T17:00:31.537Z,101008.28
2023-03-21T17:03:03.133Z,101021.50
2023-03-21T17:05:31.421Z,101020.44
2023-03-21T17:08:02.047Z,101013.03
2023-03-21T17:10:32.375Z,101026.97
2023-03-21T17:13:00.476Z,101012.66
2023-03-21T17:15:27.985Z,101017.94
2023-03-21T17:17:56.399Z,101019.72
2023-03-21T17:20:33.148Z,101026.16
2023-03-21T17:23:01.511Z,101027.69
2023-03-21T17:25:29.113Z,101023.72
2023-03-21T17:27:56.665Z,101023.97
2023-03-21T17:30:34.865Z,101033.88
2023-03-21T17:33:02.730Z,101019.22
2023-03-21T17:35:30.211Z,101029.19
2023-03-21T17:37:59.231Z,101036.81
2023-03-21T17:40:29.629Z,101031.41
2023-03-21T17:42:58.597Z,101024.28
2023-03-21T17:45:27.000Z,101028.94
2023-03-21T17:47:55.558Z,101021.53
2023-03-21T17:50:28.416Z,101025.28
2023-03-21T17:52:57.362Z,101019.03
2023-03-21T17:55:24.951Z,101018.31
2023-03-21T17:57:53.322Z,101024.47
2023-03-21T18:00:25.059Z,101022.06
2023-03-21T18:02:53.263Z,101010.94
2023-03-21T18:05:22.245Z,101023.16
2023-03-21T18:08:10.701Z,101013.84
2023-03-21T18:10:40.316Z,101020.03
2023-03-21T18:13:08.188Z,101014.16
2023-03-21T18:15:37.988Z,101010.75
2023-03-21T18:18:06.174Z,101009.16
2023-03-21T18:23:21.639Z,101003.66
2023-03-21T18:25:49.449Z,101012.75
2023-03-21T18:28:20.416Z,101022.84
2023-03-21T18:31:07.722Z,101016.66
2023-03-21T18:33:40.223Z,101016.19
2023-03-21T18:36:13.947Z,101028.47
2023-03-21T18:38:42.104Z,101014.41
2023-03-21T18:41:10.124Z,101018.13
2023-03-21T18:44:05.682Z,101020.56
2023-03-21T18:46:26.604Z,101024.13
2023-03-21T18:48:55.282Z,101031.31
2023-03-21T18:51:23.115Z,101014.19
2023-03-21T18:53:50.663Z,101013.09
2023-03-21T18:57:03.563Z,101019.41
2023-03-21T18:59:07.415Z,101014.81
2023-03-21T19:01:35.789Z,101014.78
2023-03-21T19:04:20.829Z,101023.00
2023-03-21T19:06:51.258Z,101018.97
2023-03-21T19:09:18.832Z,101028.81
2023-03-21T19:11:46.706Z,101018.88
2023-03-21T19:14:16.965Z,101021.22
2023-03-21T19:17:26.477Z,101023.16
2023-03-21T19:19:33.795Z,101025.09
2023-03-21T19:22:01.601Z,101025.81
2023-03-21T19:24:29.314Z,101017.31
2023-03-21T19:26:56.956Z,101019.84
2023-03-21T19:29:25.182Z,101014.13
2023-03-21T19:31:53.239Z,101013.53
2023-03-21T19:34:21.239Z,100997.53
2023-03-21T19:36:52.057Z,101008.28
2023-03-21T19:39:22.613Z,101008.72
2023-03-21T19:41:50.945Z,101009.75
2023-03-21T19:44:20.963Z,100994.94
2023-03-21T19:46:50.970Z,100996.31
2023-03-21T19:49:22.622Z,101011.34
2023-03-21T19:51:53.747Z,101002.97
2023-03-21T19:54:21.668Z,100999.81
2023-03-21T19:56:49.461Z,101006.81
2023-03-21T19:59:17.918Z,100997.88
2023-03-21T20:01:47.100Z,101012.19
2023-03-21T20:04:14.939Z,101001.31
2023-03-21T20:06:42.429Z,100989.72
2023-03-21T20:09:50.553Z,101001.06
2023-03-21T20:12:00.460Z,100993.69
2023-03-21T20:14:27.918Z,100993.88
2023-03-21T20:16:57.113Z,100987.28
2023-03-21T20:19:25.374Z,100985.56
2023-03-21T20:21:58.888Z,100988.38
2023-03-21T20:24:27.486Z,100982.06
2023-03-21T20:26:55.662Z,100993.75
2023-03-21T20:32:11.375Z,100981.41
2023-03-21T20:34:39.359Z,100976.69
2023-03-21T20:37:07.083Z,100976.75
2023-03-21T20:39:34.839Z,100975.09
2023-03-21T20:42:02.912Z,100978.53
2023-03-21T20:45:01.187Z,100966.22
2023-03-21T20:47:18.843Z,100965.63
2023-03-21T20:49:46.631Z,100966.22
2023-03-21T20:52:52.234Z,100962.25
2023-03-21T20:55:03.034Z,100958.63
2023-03-21T20:57:30.539Z,100971.44
2023-03-21T20:59:58.526Z,100963.66
2023-03-21T21:02:26.464Z,100957.53
2023-03-21T21:05:24.126Z,100949.44
2023-03-21T21:07:45.975Z,100958.25
2023-03-21T21:10:16.156Z,100951.59
2023-03-21T21:12:45.246Z,100945.47
2023-03-21T21:15:16.624Z,100948.84
2023-03-21T21:20:33.807Z,100950.34
2023-03-21T21:23:01.367Z,100937.75
2023-03-21T21:25:30.573Z,100949.00
2023-03-21T21:27:58.180Z,100941.78
2023-03-21T21:30:26.263Z,100933.28
2023-03-21T21:32:53.976Z,100936.56
2023-03-21T21:35:22.380Z,100936.84
2023-03-21T21:37:51.078Z,100933.69
2023-03-21T21:40:20.555Z,100940.19
2023-03-21T21:42:48.261Z,100932.19
2023-03-21T21:45:15.887Z,100923.88
2023-03-21T21:47:45.408Z,100933.19
2023-03-21T21:50:13.228Z,100925.56
2023-03-21T21:52:43.458Z,100933.94
2023-03-21T21:55:13.083Z,100927.97
2023-03-21T21:57:40.924Z,100911.81
2023-03-21T22:00:13.108Z,100921.56
2023-03-21T22:02:41.745Z,100920.09
2023-03-21T22:05:10.521Z,100918.25
2023-03-21T22:07:40.089Z,100918.72
2023-03-21T22:10:08.141Z,100928.34
2023-03-21T22:12:36.182Z,100918.16
2023-03-21T22:15:06.873Z,100910.78
2023-03-21T22:17:35.154Z,100903.03
2023-03-21T22:20:06.421Z,100899.16
2023-03-21T22:22:35.391Z,100892.34
2023-03-21T22:25:04.040Z,100912.28
2023-03-21T22:27:31.616Z,100899.34
2023-03-21T22:30:04.301Z,100905.44
2023-03-21T22:32:33.203Z,100915.75
2023-03-21T22:35:02.330Z,100911.50
2023-03-21T22:37:34.112Z,100900.34
2023-03-21T22:40:01.978Z,100895.22
2023-03-21T22:42:29.573Z,100897.16
2023-03-21T22:44:57.056Z,100898.94
2023-03-21T22:47:24.545Z,100902.03
2023-03-21T22:49:52.194Z,100885.53
2023-03-21T22:52:19.954Z,100903.06
2023-03-21T22:54:49.085Z,100887.13
2023-03-21T22:57:17.656Z,100904.38
2023-03-21T22:59:45.196Z,100896.25
2023-03-21T23:02:12.724Z,100888.00
2023-03-21T23:04:40.489Z,100905.78
2023-03-21T23:07:08.513Z,100903.84
2023-03-21T23:09:36.151Z,100899.88
2023-03-21T23:12:03.737Z,100899.97
2023-03-21T23:14:31.299Z,100899.16
2023-03-21T23:17:00.115Z,100892.72
2023-03-21T23:19:29.359Z,100890.13
2023-03-21T23:21:57.124Z,100893.41
2023-03-21T23:24:25.468Z,100891.94
2023-03-21T23:26:53.187Z,100894.34
2023-03-21T23:29:20.869Z,100893.03
2023-03-21T23:31:48.396Z,100890.72
2023-03-21T23:34:16.154Z,100897.75
2023-03-21T23:36:43.691Z,100881.75
2023-03-21T23:39:11.286Z,100893.66
2023-03-21T23:41:38.779Z,100886.44
2023-03-21T23:44:06.534Z,100884.47
2023-03-21T23:46:34.174Z,100885.19
2023-03-21T23:49:01.702Z,100885.53
2023-03-21T23:51:29.270Z,100880.78
2023-03-21T23:53:57.321Z,100886.06
2023-03-21T23:56:26.808Z,100879.16
2023-03-21T23:58:54.394Z,100874.63
